createdAt,value
2023-03-24T00:01:56.205Z,28.38
2023-03-24T00:04:29.462Z,28.95
2023-03-24T00:06:59.293Z,28.65
2023-03-24T00:09:30.402Z,28.48
2023-03-24T00:12:00.636Z,26.27
2023-03-24T00:14:32.294Z,29.25
2023-03-24T00:17:01.990Z,27.65
2023-03-24T00:19:31.614Z,28.75
2023-03-24T00:22:02.147Z,28.80
2023-03-24T00:24:31.757Z,29.90
2023-03-24T00:27:02.757Z,28.45
2023-03-24T00:29:32.440Z,28.83
2023-03-24T00:32:03.151Z,27.30
2023-03-24T00:34:32.836Z,28.33
2023-03-24T00:37:02.416Z,28.50
2023-03-24T00:39:32.096Z,28.15
2023-03-24T00:42:03.462Z,29.35
2023-03-24T00:44:33.232Z,27.88
2023-03-24T00:47:03.778Z,29.83
2023-03-24T00:49:53.856Z,27.45
2023-03-24T00:52:26.743Z,27.38
2023-03-24T00:54:59.841Z,27.20
2023-03-24T00:57:31.530Z,27.27
2023-03-24T01:00:01.165Z,27.58
2023-03-24T01:02:32.965Z,28.00
2023-03-24T01:05:03.944Z,27.48
2023-03-24T01:07:33.657Z,27.48
2023-03-24T01:10:03.795Z,27.60
2023-03-24T01:12:38.600Z,28.92
2023-03-24T01:15:14.975Z,27.63
2023-03-24T01:17:45.331Z,27.88
2023-03-24T01:20:15.035Z,28.33
2023-03-24T01:22:46.563Z,28.88
2023-03-24T01:25:18.853Z,32.03
2023-03-24T01:27:50.267Z,30.23
2023-03-24T01:30:22.862Z,31.23
2023-03-24T01:32:53.822Z,30.80
2023-03-24T01:35:26.836Z,33.10
2023-03-24T01:37:58.808Z,31.80
2023-03-24T01:40:31.595Z,29.85
2023-03-24T01:43:01.950Z,29.08
2023-03-24T01:46:00.649Z,28.23
2023-03-24T01:49:04.442Z,28.75
2023-03-24T01:51:40.005Z,28.73
2023-03-24T01:54:24.413Z,27.50
2023-03-24T01:57:08.421Z,28.25
2023-03-24T01:59:41.955Z,27.70
2023-03-24T02:02:15.400Z,26.60
2023-03-24T02:04:52.056Z,29.13
2023-03-24T02:07:43.901Z,26.75
2023-03-24T02:10:19.453Z,27.92
2023-03-24T02:12:49.625Z,27.15
2023-03-24T02:15:21.477Z,27.45
2023-03-24T02:18:22.775Z,26.25
2023-03-24T02:21:21.751Z,25.17
2023-03-24T02:24:30.529Z,26.42
2023-03-24T02:27:15.209Z,26.70
2023-03-24T02:30:23.950Z,27.65
2023-03-24T02:33:32.810Z,27.33
2023-03-24T02:36:41.534Z,26.60
2023-03-24T02:39:50.340Z,28.65
2023-03-24T02:42:59.327Z,29.58
2023-03-24T02:45:43.134Z,28.33
2023-03-24T02:48:39.394Z,29.02
2023-03-24T02:51:29.295Z,27.60
2023-03-24T02:54:22.364Z,29.10
2023-03-24T02:57:12.793Z,27.15
2023-03-24T02:59:55.345Z,26.27
2023-03-24T03:02:36.396Z,28.00
2023-03-24T03:05:18.574Z,27.92
2023-03-24T03:07:49.931Z,27.40
2023-03-24T03:10:29.111Z,28.55
2023-03-24T03:13:03.153Z,28.15
2023-03-24T03:15:43.218Z,26.85
2023-03-24T03:18:41.048Z,28.00
2023-03-24T03:21:15.243Z,27.35
2023-03-24T03:23:56.405Z,27.00
2023-03-24T03:26:30.201Z,25.88
2023-03-24T03:29:03.508Z,25.02
2023-03-24T03:31:44.473Z,25.45
2023-03-24T03:34:41.387Z,26.00
2023-03-24T03:37:25.981Z,26.00
2023-03-24T03:40:02.271Z,27.63
2023-03-24T03:42:32.209Z,24.90
2023-03-24T03:45:02.072Z,25.42
2023-03-24T03:47:33.796Z,24.77
2023-03-24T03:50:05.093Z,27.17
2023-03-24T03:52:34.875Z,25.42
2023-03-24T03:55:06.640Z,25.05
2023-03-24T03:57:38.475Z,26.17
2023-03-24T04:00:13.546Z,25.40
2023-03-24T04:03:03.854Z,23.77
2023-03-24T04:05:56.587Z,24.83
2023-03-24T04:08:45.524Z,24.88
2023-03-24T04:11:48.547Z,24.63
2023-03-24T04:14:57.555Z,23.67
2023-03-24T04:18:06.330Z,23.08
2023-03-24T04:21:15.101Z,23.70
2023-03-24T04:24:17.740Z,23.23
2023-03-24T04:27:02.459Z,23.20
2023-03-24T04:30:11.199Z,23.02
2023-03-24T04:33:02.067Z,22.27
2023-03-24T04:35:48.545Z,21.60
2023-03-24T04:38:25.006Z,24.88
2023-03-24T04:40:57.764Z,24.73
2023-03-24T04:43:37.728Z,24.88
2023-03-24T04:46:11.274Z,24.73
2023-03-24T04:48:40.967Z,25.00
2023-03-24T04:51:12.791Z,24.65
2023-03-24T04:53:42.586Z,24.00
2023-03-24T04:56:52.544Z,24.00
2023-03-24T04:59:23.105Z,23.35
2023-03-24T05:01:52.796Z,25.00
2023-03-24T05:04:25.328Z,24.30
2023-03-24T05:06:55.058Z,22.27
2023-03-24T05:09:27.016Z,22.90
2023-03-24T05:11:56.692Z,23.25
2023-03-24T05:14:26.515Z,22.73
2023-03-24T05:16:59.267Z,23.92
2023-03-24T05:19:28.905Z,23.17
2023-03-24T05:21:58.506Z,22.52
2023-03-24T05:24:28.417Z,22.98
2023-03-24T05:26:58.023Z,23.05
2023-03-24T05:29:27.903Z,24.48
2023-03-24T05:31:57.565Z,22.73
2023-03-24T05:34:27.419Z,22.63
2023-03-24T05:36:57.225Z,22.23
2023-03-24T05:39:27.208Z,22.45
2023-03-24T05:41:56.847Z,23.80
2023-03-24T05:44:26.629Z,23.65
2023-03-24T05:46:56.314Z,23.25
2023-03-24T05:49:25.924Z,22.42
2023-03-24T05:51:55.695Z,21.25
2023-03-24T05:54:25.585Z,22.48
2023-03-24T05:56:55.321Z,22.65
2023-03-24T05:59:26.629Z,21.80
2023-03-24T06:02:00.144Z,21.75
2023-03-24T06:04:33.247Z,20.17
2023-03-24T06:07:04.418Z,20.88
2023-03-24T06:09:38.898Z,18.88
2023-03-24T06:12:11.634Z,20.70
2023-03-24T06:14:42.282Z,19.60
2023-03-24T06:17:16.276Z,21.02
2023-03-24T06:19:52.126Z,19.10
2023-03-24T06:22:22.811Z,20.73
2023-03-24T06:24:52.482Z,20.42
2023-03-24T06:27:23.470Z,19.70
2023-03-24T06:29:53.346Z,19.60
2023-03-24T06:32:23.198Z,17.52
2023-03-24T06:34:53.264Z,19.27
2023-03-24T06:37:25.245Z,19.20
2023-03-24T06:39:54.898Z,18.60
2023-03-24T06:42:24.509Z,18.92
2023-03-24T06:44:54.161Z,18.60
2023-03-24T06:47:23.803Z,18.52
2023-03-24T06:49:53.408Z,18.10
2023-03-24T06:52:23.115Z,18.50
2023-03-24T06:54:52.762Z,17.77
2023-03-24T06:57:23.463Z,18.73
2023-03-24T06:59:53.388Z,17.58
2023-03-24T07:02:23.211Z,18.38
2023-03-24T07:04:55.676Z,19.33
2023-03-24T07:09:58.373Z,19.08
2023-03-24T07:12:28.340Z,17.63
2023-03-24T07:14:58.028Z,18.73
2023-03-24T07:17:27.787Z,19.25
2023-03-24T07:20:00.335Z,19.23
2023-03-24T07:22:30.101Z,19.33
2023-03-24T07:24:59.886Z,20.38
2023-03-24T07:27:29.480Z,20.08
2023-03-24T07:29:59.185Z,20.05
2023-03-24T07:32:31.680Z,19.15
2023-03-24T07:35:01.336Z,20.55
2023-03-24T07:37:31.014Z,18.83
2023-03-24T07:40:00.582Z,20.45
2023-03-24T07:42:30.331Z,20.48
2023-03-24T07:45:00.024Z,19.52
2023-03-24T07:47:29.722Z,20.48
2023-03-24T07:50:02.041Z,21.05
2023-03-24T07:52:32.036Z,21.17
2023-03-24T07:55:01.685Z,21.38
2023-03-24T07:57:32.284Z,21.17
2023-03-24T08:00:02.448Z,21.30
2023-03-24T08:02:32.365Z,20.17
2023-03-24T08:05:01.989Z,20.27
2023-03-24T08:07:31.507Z,20.88
2023-03-24T08:10:01.197Z,22.23
2023-03-24T08:12:30.737Z,21.00
2023-03-24T08:15:00.359Z,21.35
2023-03-24T08:17:30.087Z,20.88
2023-03-24T08:20:02.063Z,19.63
2023-03-24T08:22:33.835Z,19.80
2023-03-24T08:25:03.473Z,20.25
2023-03-24T08:27:33.140Z,20.00
2023-03-24T08:30:03.538Z,20.80
2023-03-24T08:32:33.184Z,21.23
2023-03-24T08:35:06.547Z,20.85
2023-03-24T08:37:36.157Z,19.70
2023-03-24T08:40:07.098Z,18.98
2023-03-24T08:42:36.719Z,20.38
2023-03-24T08:45:12.672Z,18.80
2023-03-24T08:47:43.519Z,18.67
2023-03-24T08:50:13.683Z,18.90
2023-03-24T08:52:43.732Z,19.63
2023-03-24T08:55:13.432Z,19.23
2023-03-24T08:57:43.666Z,19.27
2023-03-24T09:00:16.895Z,19.48
2023-03-24T09:02:48.525Z,19.38
2023-03-24T09:05:29.331Z,19.17
2023-03-24T09:08:06.805Z,20.73
2023-03-24T09:10:36.499Z,19.52
2023-03-24T09:13:06.886Z,19.13
2023-03-24T09:15:36.847Z,19.25
2023-03-24T09:18:07.076Z,19.88
2023-03-24T09:20:36.732Z,19.10
2023-03-24T09:23:06.567Z,19.65
2023-03-24T09:25:36.161Z,18.90
2023-03-24T09:28:05.849Z,19.73
2023-03-24T09:30:35.713Z,18.63
2023-03-24T09:33:05.627Z,18.38
2023-03-24T09:35:35.286Z,18.92
2023-03-24T09:38:05.123Z,17.98
2023-03-24T09:40:39.016Z,18.55
2023-03-24T09:43:21.910Z,18.55
2023-03-24T09:45:58.887Z,18.52
2023-03-24T09:48:42.940Z,18.52
2023-03-24T09:51:26.308Z,17.15
2023-03-24T09:54:30.712Z,17.73
2023-03-24T09:57:01.351Z,19.33
2023-03-24T09:59:39.858Z,19.52
2023-03-24T10:02:18.410Z,18.05
2023-03-24T10:04:48.581Z,19.30
2023-03-24T10:07:34.993Z,20.85
2023-03-24T10:10:05.749Z,19.15
2023-03-24T10:12:39.584Z,20.05
2023-03-24T10:15:37.608Z,18.67
2023-03-24T10:18:45.665Z,18.20
2023-03-24T10:21:24.227Z,18.95
2023-03-24T10:24:20.825Z,17.60
2023-03-24T10:27:15.543Z,16.63
2023-03-24T10:29:48.262Z,17.02
2023-03-24T10:32:25.854Z,16.27
2023-03-24T10:37:39.704Z,16.08
2023-03-24T10:40:19.643Z,16.83
2023-03-24T10:43:06.977Z,16.80
2023-03-24T10:45:42.881Z,17.08
2023-03-24T10:48:15.973Z,16.30
2023-03-24T10:50:47.298Z,16.35
2023-03-24T10:53:21.649Z,16.98
2023-03-24T10:55:52.215Z,15.63
2023-03-24T10:58:42.782Z,16.63
2023-03-24T11:01:29.935Z,16.50
2023-03-24T11:04:06.890Z,18.17
2023-03-24T11:06:37.042Z,28.10
2023-03-24T11:09:31.317Z,19.20
2023-03-24T11:12:06.071Z,18.25
2023-03-24T11:14:35.862Z,17.30
2023-03-24T11:17:16.694Z,18.67
2023-03-24T11:19:57.136Z,18.52
2023-03-24T11:22:28.219Z,18.75
2023-03-24T11:24:59.121Z,17.80
2023-03-24T11:27:29.449Z,18.45
2023-03-24T11:30:00.270Z,17.70
2023-03-24T11:32:31.486Z,18.60
2023-03-24T11:35:20.510Z,18.67
2023-03-24T11:37:50.806Z,19.35
2023-03-24T11:40:25.548Z,18.60
2023-03-24T11:43:02.212Z,19.80
2023-03-24T11:45:46.839Z,19.33
2023-03-24T11:48:51.490Z,18.05
2023-03-24T11:51:37.938Z,22.08
2023-03-24T11:54:18.292Z,25.37
2023-03-24T11:56:54.449Z,25.58
2023-03-24T11:59:54.377Z,24.80
2023-03-24T12:02:50.606Z,32.20
2023-03-24T12:05:59.734Z,29.23
2023-03-24T12:08:56.626Z,26.63
2023-03-24T12:11:42.168Z,27.58
2023-03-24T12:14:12.415Z,25.05
2023-03-24T12:17:10.440Z,22.73
2023-03-24T12:19:57.786Z,22.67
2023-03-24T12:22:52.791Z,22.80
2023-03-24T12:25:48.703Z,21.33
2023-03-24T12:28:49.850Z,19.88
2023-03-24T12:31:41.086Z,20.10
2023-03-24T12:34:49.889Z,19.20
2023-03-24T12:37:58.636Z,19.45
2023-03-24T12:41:05.694Z,19.65
2023-03-24T12:43:51.405Z,18.85
2023-03-24T12:46:47.733Z,18.98
2023-03-24T12:49:47.773Z,19.27
2023-03-24T12:52:27.695Z,18.30
2023-03-24T12:55:20.081Z,17.40
2023-03-24T12:57:58.746Z,18.40
2023-03-24T13:00:34.309Z,19.30
2023-03-24T13:03:13.294Z,18.52
2023-03-24T13:06:07.250Z,18.95
2023-03-24T13:08:43.382Z,19.92
2023-03-24T13:11:30.109Z,20.00
2023-03-24T13:14:05.487Z,21.70
2023-03-24T13:16:38.926Z,23.83
2023-03-24T13:19:18.394Z,22.67
2023-03-24T13:21:48.786Z,22.83
2023-03-24T13:24:21.169Z,23.20
2023-03-24T13:27:22.364Z,24.15
2023-03-24T13:30:26.570Z,22.30
2023-03-24T13:33:01.662Z,23.13
2023-03-24T13:36:10.443Z,23.30
2023-03-24T13:38:51.640Z,22.77
2023-03-24T13:41:33.306Z,22.67
2023-03-24T13:44:11.493Z,26.60
2023-03-24T13:46:44.085Z,23.48
2023-03-24T13:49:18.179Z,25.70
2023-03-24T13:51:49.551Z,23.15
2023-03-24T13:54:25.789Z,23.80
2023-03-24T13:57:06.142Z,22.35
2023-03-24T14:00:03.660Z,25.42
2023-03-24T14:05:35.789Z,24.50
2023-03-24T14:08:36.209Z,23.90
2023-03-24T14:11:06.149Z,23.27
2023-03-24T14:13:48.208Z,24.45
2023-03-24T14:16:53.632Z,22.33
2023-03-24T14:19:28.455Z,22.65
2023-03-24T14:22:23.252Z,22.73
2023-03-24T14:37:39.396Z,22.88
2023-03-24T14:40:29.576Z,23.40
2023-03-24T14:43:15.152Z,20.20
2023-03-24T14:45:59.387Z,22.42
2023-03-24T14:48:41.139Z,21.92
2023-03-24T14:51:31.369Z,22.83
2023-03-24T14:54:01.749Z,22.58
2023-03-24T14:56:38.140Z,22.13
2023-03-24T14:59:40.804Z,22.50
2023-03-24T15:02:26.383Z,23.02
2023-03-24T15:05:35.510Z,21.75
2023-03-24T15:08:28.924Z,22.35
2023-03-24T15:11:12.136Z,23.48
2023-03-24T15:14:04.424Z,23.70
2023-03-24T15:16:36.960Z,22.88
2023-03-24T15:19:20.938Z,24.08
2023-03-24T15:21:53.612Z,23.83
2023-03-24T15:24:33.684Z,23.55
2023-03-24T15:27:23.872Z,23.38
2023-03-24T15:30:02.177Z,25.60
2023-03-24T15:32:40.695Z,24.30
2023-03-24T15:35:33.499Z,24.10
2023-03-24T15:38:03.822Z,23.42
2023-03-24T15:40:36.764Z,23.88
2023-03-24T15:43:09.781Z,23.77
2023-03-24T15:46:04.767Z,23.25
2023-03-24T15:48:40.055Z,24.33
2023-03-24T15:51:13.470Z,23.05
2023-03-24T15:54:00.873Z,24.52
2023-03-24T15:56:38.220Z,24.05
2023-03-24T15:59:17.423Z,22.48
2023-03-24T16:01:47.477Z,24.70
2023-03-24T16:04:19.987Z,24.75
2023-03-24T16:06:54.189Z,23.48
2023-03-24T16:09:29.200Z,24.67
2023-03-24T16:11:59.403Z,24.88
2023-03-24T16:14:34.374Z,24.35
2023-03-24T16:17:05.749Z,25.30
2023-03-24T16:19:35.636Z,27.58
2023-03-24T16:22:11.093Z,29.00
2023-03-24T16:24:40.988Z,25.35
2023-03-24T16:27:14.137Z,24.77
2023-03-24T16:29:44.957Z,27.65
2023-03-24T16:32:14.896Z,26.85
2023-03-24T16:34:45.951Z,26.58
2023-03-24T16:37:15.856Z,25.75
2023-03-24T16:39:45.807Z,25.73
2023-03-24T16:42:16.972Z,29.83
2023-03-24T16:44:48.254Z,28.80
2023-03-24T16:47:18.131Z,29.90
2023-03-24T16:52:18.376Z,30.83
2023-03-24T16:54:49.321Z,29.40
2023-03-24T16:57:19.159Z,28.10
2023-03-24T16:59:49.012Z,29.88
2023-03-24T17:02:19.038Z,28.40
2023-03-24T17:04:49.578Z,28.85
2023-03-24T17:07:19.426Z,28.85
2023-03-24T17:09:51.826Z,27.33
2023-03-24T17:12:21.991Z,26.70
2023-03-24T17:14:51.917Z,27.23
2023-03-24T17:17:21.718Z,26.45
2023-03-24T17:19:51.549Z,25.65
2023-03-24T17:22:21.497Z,27.30
2023-03-24T17:24:51.846Z,27.60
2023-03-24T17:27:23.015Z,27.02
2023-03-24T17:29:53.392Z,28.30
2023-03-24T17:32:23.289Z,27.38
2023-03-24T17:34:53.166Z,25.67
2023-03-24T17:37:23.851Z,27.55
2023-03-24T17:39:57.555Z,28.95
2023-03-24T17:42:30.145Z,29.33
2023-03-24T17:44:59.957Z,28.08
2023-03-24T17:47:30.055Z,27.45
2023-03-24T17:50:00.310Z,29.35
2023-03-24T17:52:30.257Z,28.65
2023-03-24T17:55:00.175Z,27.00
2023-03-24T17:57:29.891Z,26.50
2023-03-24T17:59:59.720Z,25.67
2023-03-24T18:02:30.036Z,30.15
2023-03-24T18:05:00.473Z,29.70
2023-03-24T18:07:30.584Z,28.08
2023-03-24T18:10:02.621Z,31.25
2023-03-24T18:12:32.751Z,29.40
2023-03-24T18:15:02.892Z,30.42
2023-03-24T18:17:33.085Z,29.13
2023-03-24T18:20:11.669Z,28.58
2023-03-24T18:22:42.619Z,30.17
2023-03-24T18:25:14.208Z,30.55
2023-03-24T18:27:44.732Z,28.85
2023-03-24T18:30:16.440Z,29.65
2023-03-24T18:32:46.428Z,29.17
2023-03-24T18:35:17.945Z,27.92
2023-03-24T18:37:48.031Z,28.63
2023-03-24T18:40:18.080Z,28.13
2023-03-24T18:42:48.125Z,27.67
2023-03-24T18:45:20.356Z,28.15
2023-03-24T18:47:50.402Z,28.33
2023-03-24T18:50:20.467Z,29.33
2023-03-24T18:52:50.680Z,27.13
2023-03-24T18:55:22.533Z,28.95
2023-03-24T18:57:52.534Z,29.63
2023-03-24T19:00:23.662Z,28.27
2023-03-24T19:02:56.779Z,29.05
2023-03-24T19:05:26.859Z,28.35
2023-03-24T19:07:56.865Z,28.55
2023-03-24T19:10:27.618Z,28.50
2023-03-24T19:13:00.705Z,29.38
2023-03-24T19:15:33.802Z,29.77
2023-03-24T19:18:04.152Z,30.75
2023-03-24T19:20:36.662Z,31.13
2023-03-24T19:23:06.939Z,31.00
2023-03-24T19:25:37.132Z,30.48
2023-03-24T19:28:07.382Z,31.30
2023-03-24T19:30:37.297Z,30.77
2023-03-24T19:33:07.411Z,30.55
2023-03-24T19:35:38.097Z,31.48
2023-03-24T19:38:08.058Z,32.65
2023-03-24T19:40:38.095Z,32.13
2023-03-24T19:43:08.396Z,31.52
2023-03-24T19:45:38.351Z,31.38
2023-03-24T19:48:08.452Z,30.83
2023-03-24T19:50:39.230Z,30.58
2023-03-24T19:53:09.065Z,28.50
2023-03-24T19:55:38.815Z,29.80
2023-03-24T19:58:09.094Z,29.55
2023-03-24T20:00:39.036Z,28.48
2023-03-24T20:03:09.643Z,28.20
2023-03-24T20:05:39.592Z,27.55
2023-03-24T20:08:09.425Z,28.35
2023-03-24T20:10:42.054Z,29.00
2023-03-24T20:13:12.348Z,28.60
2023-03-24T20:15:42.538Z,28.70
2023-03-24T20:18:12.477Z,29.13
2023-03-24T20:20:42.264Z,27.70
2023-03-24T20:23:12.510Z,26.80
2023-03-24T20:25:45.994Z,28.02
2023-03-24T20:28:16.047Z,29.42
2023-03-24T20:30:47.015Z,27.77
2023-03-24T20:33:16.852Z,27.92
2023-03-24T20:35:47.016Z,29.35
2023-03-24T20:38:17.361Z,29.83
2023-03-24T20:40:48.683Z,29.73
2023-03-24T20:43:18.697Z,29.05
2023-03-24T20:45:49.284Z,29.75
2023-03-24T20:48:19.368Z,31.02
2023-03-24T20:50:49.191Z,30.77
2023-03-24T20:53:19.463Z,32.30
2023-03-24T20:56:00.345Z,32.00
2023-03-24T20:58:32.505Z,32.00
2023-03-24T21:01:02.845Z,32.55
2023-03-24T21:03:32.744Z,34.22
2023-03-24T21:06:02.776Z,30.83
2023-03-24T21:08:33.066Z,29.80
2023-03-24T21:11:03.378Z,29.33
2023-03-24T21:16:11.184Z,33.17
2023-03-24T21:18:44.473Z,32.25
2023-03-24T21:21:14.785Z,31.90
2023-03-24T21:23:45.597Z,30.58
2023-03-24T21:26:19.117Z,32.33
2023-03-24T21:28:51.849Z,34.00
2023-03-24T21:31:27.451Z,34.45
2023-03-24T21:33:59.002Z,35.30
2023-03-24T21:36:31.746Z,34.42
2023-03-24T21:39:01.651Z,33.35
2023-03-24T21:41:32.954Z,33.20
2023-03-24T21:44:03.023Z,34.60
2023-03-24T21:46:33.867Z,34.60
2023-03-24T21:49:03.857Z,34.10
2023-03-24T21:51:38.748Z,34.65
2023-03-24T21:54:10.568Z,34.88
2023-03-24T21:56:40.731Z,35.03
2023-03-24T21:59:11.515Z,35.17
2023-03-24T22:01:41.666Z,34.03
2023-03-24T22:04:12.635Z,35.90
2023-03-24T22:06:42.454Z,33.67
2023-03-24T22:09:12.236Z,32.22
2023-03-24T22:16:24.378Z,31.00
2023-03-24T22:21:14.560Z,31.90
2023-03-24T22:23:44.839Z,31.08
2023-03-24T22:26:17.297Z,32.67
2023-03-24T22:28:47.322Z,33.72
2023-03-24T22:31:18.490Z,33.58
2023-03-24T22:33:49.823Z,31.77
2023-03-24T22:36:19.824Z,33.03
2023-03-24T22:38:49.637Z,31.08
2023-03-24T22:41:19.736Z,32.13
2023-03-24T22:43:49.509Z,30.77
2023-03-24T22:46:19.746Z,31.45
2023-03-24T22:48:49.748Z,30.30
2023-03-24T22:51:21.194Z,29.67
2023-03-24T22:53:51.315Z,32.08
2023-03-24T22:56:21.226Z,31.08
2023-03-24T22:58:51.536Z,29.95
2023-03-24T23:01:21.677Z,29.88
2023-03-24T23:03:51.622Z,29.92
2023-03-24T23:06:23.400Z,29.55
2023-03-24T23:08:55.306Z,30.10
2023-03-24T23:11:25.199Z,28.90
2023-03-24T23:13:55.020Z,30.85
2023-03-24T23:16:24.969Z,30.45
2023-03-24T23:18:56.087Z,28.88
2023-03-24T23:26:08.954Z,30.98
2023-03-24T23:37:55.197Z,29.05
2023-03-24T23:40:25.999Z,29.85
